M I D A S
Marine Information and Data Acquisition System
Tripno 365 of the Zeeleeuw from 2002-11-26 08:20:16 to 2002-11-26 14:46:04
Back to CruiseResearch ActivitiesStationsMapUnderway DataData graphs

EquipmentUnitsComment
TimeDGPSUTC
LatitudeDGPSDM.mWGS84
LongitudeDGPSDM.mWGS84
TemperatureSBE03/SBE38deg celciusITS90
ConductivitySBE21S/mITS90
SalinitySBE21 Practical Salinity Units
ChlorophylAChelsea fluorimeterg/lCalibrated in Aceton
Missing or incorrect values are displayed as -999
Sea surface data collected by the RV Zeeleeuw from 2002-11-26 08:20:16 to 2002-11-26 14:46:04
Time Latitude Longitude Temperature Conductivity Salinity ChlorophylA
2002-11-26 08:21:21 51°13.705 2°55.747 -999 0.066742 0.349702  
2002-11-26 08:22:21 51°13.703 2°55.732 -999 0.066742 0.349723  
2002-11-26 08:23:21 51°13.761 2°55.688 -999 0.066742 0.349734  
2002-11-26 08:24:22 51°13.864 2°55.614 -999 0.066742 0.349761  
2002-11-26 08:25:21 51°13.974 2°55.537 -999 0.066742 0.349771  
2002-11-26 08:26:20 51°14.084 2°55.452 -999 0.066742 0.349787  
2002-11-26 08:27:21 51°14.206 2°55.344 -999 0.066742 0.349809  
2002-11-26 08:28:21 51°14.312 2°55.165 -999 0.066742 0.349819  
2002-11-26 08:29:21 51°14.444 2°54.99 -999 0.066742 0.349851  
2002-11-26 08:30:21 51°14.622 2°54.822 -999 0.066742 0.349862  
2002-11-26 08:31:20 51°14.807 2°54.646 -999 0.066742 0.349872  
2002-11-26 08:32:20 51°14.998 2°54.472 -999 0.066742 0.349888  
2002-11-26 08:33:20 51°15.188 2°54.298 -999 0.066742 0.349904  
2002-11-26 08:34:20 51°15.383 2°54.121 -999 0.066742 0.349915  
2002-11-26 08:35:21 51°15.581 2°53.937 -999 0.066742 0.349936  
2002-11-26 08:36:20 51°15.771 2°53.759 -999 0.066742 0.349952  
2002-11-26 08:37:20 51°15.965 2°53.575 -999 0.066742 0.349968  
2002-11-26 08:38:20 51°16.169 2°53.398 -999 0.066742 0.349984  
2002-11-26 08:39:20 51°16.376 2°53.222 -999 0.066742 0.35  
2002-11-26 08:40:21 51°16.586 2°53.044 -999 0.066742 0.350011  
2002-11-26 08:41:20 51°16.789 2°52.875 -999 0.066742 0.350032  
2002-11-26 08:42:20 51°16.993 2°52.705 -999 0.066742 0.350043  
2002-11-26 08:43:20 51°17.2 2°52.534 -999 0.066742 0.350069  
2002-11-26 08:44:20 51°17.408 2°52.36 -999 0.066742 0.350075  
2002-11-26 08:45:20 51°17.591 2°52.124 -999 0.066742 0.350085  
2002-11-26 08:46:21 51°17.737 2°51.824 -999 0.066742 0.350096  
2002-11-26 08:47:20 51°17.862 2°51.511 -999 0.066742 0.350123  
2002-11-26 08:48:20 51°17.993 2°51.193 -999 0.066742 0.350144  
2002-11-26 08:49:20 51°18.125 2°50.878 31.12356 0.066742 0.350155  
2002-11-26 08:50:20 51°18.256 2°50.56 31.036521 0.066742 0.350171  
2002-11-26 08:51:20 51°18.39 2°50.245 29.988204 0.066742 0.350187  
2002-11-26 08:52:20 51°18.524 2°49.932 30.42336 0.066742 0.350208  
2002-11-26 08:53:20 51°18.658 2°49.619 29.776163 0.066742 0.350224  
2002-11-26 08:54:20 51°18.792 2°49.305 31.243069 0.066742 0.35024  
2002-11-26 08:55:20 51°18.928 2°48.987 30.216298 0.066742 0.350261  
2002-11-26 08:56:20 51°19.065 2°48.666 28.768504 0.066742 0.350283  
2002-11-26 08:57:20 51°19.199 2°48.349 29.407638 0.066846 0.35085  
2002-11-26 08:58:20 51°19.332 2°48.032 28.78059 0.066742 0.350309  
2002-11-26 08:59:20 51°19.466 2°47.717 30.517901 0.066742 0.350325  
2002-11-26 09:00:20 51°19.601 2°47.403 30.152869 0.066742 0.350341  
2002-11-26 09:01:20 51°19.729 2°47.084 28.223807 0.066742 0.350373  
2002-11-26 09:02:20 51°19.815 2°46.728 29.832624 0.066742 0.350373  
2002-11-26 09:03:20 51°19.897 2°46.37 28.054031 0.066846 0.350957  
2002-11-26 09:04:20 51°19.971 2°46.005 29.060137 0.066846 0.350962  
2002-11-26 09:05:20 51°20.048 2°45.637 29.725185 0.066846 0.350979  
2002-11-26 09:06:20 51°20.123 2°45.269 29.513647 0.066846 0.351  
2002-11-26 09:07:20 51°20.195 2°44.904 28.86528 0.066846 0.351011  
2002-11-26 09:08:20 51°20.27 2°44.542 29.994415 0.066742 0.350475  
2002-11-26 09:09:20 51°20.333 2°44.175 29.401699 0.066846 0.351048  
2002-11-26 09:10:21 51°20.386 2°43.798 30.653965 0.066742 0.350507  
2002-11-26 09:11:20 51°20.437 2°43.433 29.367584 0.066846 0.35108  
2002-11-26 09:12:20 51°20.491 2°43.059 26.55557 0.066846 0.351107  
2002-11-26 09:13:20 51°20.544 2°42.685 28.982784 0.066846 0.351118  
2002-11-26 09:14:20 51°20.599 2°42.31 28.171078 0.066846 0.351139  
2002-11-26 09:15:20 51°20.654 2°41.931 27.847822 0.066846 0.35115  
2002-11-26 09:16:21 51°20.711 2°41.547 28.896293 0.066846 0.351171  
2002-11-26 09:17:21 51°20.766 2°41.172 28.43572 0.066846 0.351193  
2002-11-26 09:18:21 51°20.822 2°40.798 29.453927 0.066846 0.351198  
2002-11-26 09:19:21 51°20.878 2°40.422 28.129418 0.066846 0.351219  
2002-11-26 09:20:20 51°20.934 2°40.055 28.382131 0.066846 0.351241  
2002-11-26 09:21:20 51°20.999 2°39.687 29.971298 0.066846 0.351252  
2002-11-26 09:22:20 51°21.079 2°39.326 28.812355 0.066846 0.351268  
2002-11-26 09:23:20 51°21.193 2°38.992 30.191242 0.066846 0.351278  
2002-11-26 09:24:21 51°21.38 2°38.751 29.455206 0.066846 0.3513  
2002-11-26 09:25:20 51°21.593 2°38.605 27.40498 0.066846 0.351316  
2002-11-26 09:26:20 51°21.817 2°38.499 28.635251 0.066846 0.351332  
2002-11-26 09:27:20 51°22.041 2°38.387 28.975059 0.066846 0.351353  
2002-11-26 09:28:20 51°22.262 2°38.27 29.507645 0.066846 0.351359  
2002-11-26 09:29:20 51°22.485 2°38.15 29.949622 0.066846 0.35138  
2002-11-26 09:30:20 51°22.706 2°38.031 29.528455 0.066846 0.351391  
2002-11-26 09:31:20 51°22.929 2°37.908 29.396791 0.066846 0.351407  
2002-11-26 09:32:20 51°23.15 2°37.786 30.025709 0.066846 0.351418  
2002-11-26 09:33:20 51°23.37 2°37.656 29.399423 0.066846 0.351439  
2002-11-26 09:34:20 51°23.589 2°37.528 30.707925 0.066846 0.351445  
2002-11-26 09:35:20 51°23.808 2°37.392 29.85444 0.066846 0.351461  
2002-11-26 09:36:20 51°24.018 2°37.223 30.047117 0.06695 0.35204  
2002-11-26 09:37:20 51°24.225 2°37.037 28.453658 0.066846 0.351493  
2002-11-26 09:38:20 51°24.429 2°36.85 29.776659 0.066846 0.351509  
2002-11-26 09:39:20 51°24.638 2°36.673 30.228506 0.066846 0.35152  
2002-11-26 09:40:20 51°24.851 2°36.516 30.410762 0.066846 0.351536  
2002-11-26 09:41:21 51°25.076 2°36.392 29.508214 0.066846 0.351547  
2002-11-26 09:42:20 51°25.291 2°36.269 29.140409 0.066846 0.351563  
2002-11-26 09:43:20 51°25.512 2°36.147 28.741169 0.066846 0.351574  
2002-11-26 09:44:21 51°25.736 2°36.023 30.353606 0.066846 0.35159  
2002-11-26 09:45:20 51°25.953 2°35.902 30.644764 0.066846 0.351595  
2002-11-26 09:46:20 51°26.175 2°35.78 29.664674 0.066846 0.351611  
2002-11-26 09:47:20 51°26.396 2°35.656 30.476851 0.066846 0.351611  
2002-11-26 09:48:21 51°26.617 2°35.529 31.443764 0.066846 0.351638  
2002-11-26 09:49:20 51°26.832 2°35.406 31.005605 0.066846 0.351649  
2002-11-26 09:50:20 51°27.05 2°35.278 31.557727 0.066846 0.35166  
2002-11-26 09:51:20 51°27.269 2°35.149 31.356846 0.066846 0.351676  
2002-11-26 09:52:20 51°27.486 2°35.02 29.741155 0.066846 0.351686  
2002-11-26 09:53:21 51°27.708 2°34.887 30.04754 0.066846 0.351692  
2002-11-26 09:54:20 51°27.921 2°34.758 30.92854 0.066846 0.351708  
2002-11-26 09:55:20 51°28.137 2°34.631 30.087307 0.066846 0.351729  
2002-11-26 09:56:21 51°28.36 2°34.518 29.278185 0.066846 0.351724  
2002-11-26 09:57:20 51°28.582 2°34.532 29.669636 0.066846 0.35174  
2002-11-26 09:58:20 51°28.793 2°34.665 29.209507 0.066742 0.351198  
2002-11-26 09:59:20 51°28.987 2°34.847 28.882113 0.066742 0.351209  
2002-11-26 10:00:21 51°29.132 2°35.121 28.757313 0.066742 0.351214  
2002-11-26 10:01:21 51°29.221 2°35.45 27.856064 0.066742 0.351225  
2002-11-26 10:02:20 51°29.308 2°35.771 29.02408 0.066742 0.351236  
2002-11-26 10:03:21 51°29.396 2°36.103 28.885408 0.066742 0.351246  
2002-11-26 10:04:20 51°29.484 2°36.42 29.459222 0.066742 0.351241  
2002-11-26 10:05:20 51°29.571 2°36.744 30.288147 0.066742 0.351252  
2002-11-26 10:06:21 51°29.66 2°37.074 30.33787 0.066742 0.351252  
2002-11-26 10:07:20 51°29.801 2°37.327 29.070283 0.066742 0.351262  
2002-11-26 10:08:20 51°29.986 2°37.519 28.733096 0.066742 0.351262  
2002-11-26 10:09:20 51°30.165 2°37.72 28.803106 0.066742 0.351273  
2002-11-26 10:10:21 51°30.345 2°37.933 29.41219 0.066742 0.351268  
2002-11-26 10:11:21 51°30.524 2°38.143 30.118562 0.066742 0.351284  
2002-11-26 10:12:20 51°30.7 2°38.353 29.409345 0.066742 0.351289  
2002-11-26 10:13:20 51°30.874 2°38.567 29.427444 0.066638 0.350725  
2002-11-26 10:14:20 51°31.052 2°38.781 28.795147 0.066638 0.350742  
2002-11-26 10:15:21 51°31.233 2°38.999 28.089798 0.066638 0.350752  
2002-11-26 10:16:21 51°31.41 2°39.212 29.739208 0.066638 0.350747  
2002-11-26 10:17:21 51°31.602 2°39.38 29.64961 0.066638 0.350747  
2002-11-26 10:18:21 51°31.819 2°39.468 28.170535 0.066638 0.350763  
2002-11-26 10:19:20 51°32.033 2°39.555 29.021185 0.066638 0.350768  
2002-11-26 10:20:20 51°32.252 2°39.647 27.381599 0.066638 0.350768  
2002-11-26 10:21:21 51°32.474 2°39.74 29.663647 0.066638 0.350774  
2002-11-26 10:22:20 51°32.688 2°39.832 28.954132 0.066638 0.350774  
2002-11-26 10:23:20 51°32.905 2°39.925 30.531357 0.066638 0.350784  
2002-11-26 10:24:20 51°33.122 2°40.019 28.132637 0.066638 0.350784  
2002-11-26 10:25:20 51°33.34 2°40.107 29.875649 0.066638 0.350795  
2002-11-26 10:26:20 51°33.563 2°40.129 29.485836 0.066638 0.35079  
2002-11-26 10:27:20 51°33.788 2°40.138 29.717358 0.066638 0.35079  
2002-11-26 10:28:21 51°34.004 2°40.03 29.220132 0.066638 0.350784  
2002-11-26 10:29:21 51°34.167 2°39.767 29.156753 0.066638 0.35079  
2002-11-26 10:30:21 51°34.302 2°39.446 28.903454 0.066638 0.350806  
2002-11-26 10:31:20 51°34.438 2°39.139 28.597048 0.066638 0.350806  
2002-11-26 10:32:21 51°34.58 2°38.826 28.519792 0.066638 0.350811  
2002-11-26 10:33:21 51°34.718 2°38.519 28.47973 0.066638 0.350817  
2002-11-26 10:34:21 51°34.87 2°38.239 29.427515 0.066638 0.350811  
2002-11-26 10:35:21 51°35.074 2°38.099 28.385555 0.066638 0.350822  
2002-11-26 10:36:21 51°35.296 2°38.093 28.70022 0.066638 0.350827  
2002-11-26 10:37:20 51°35.514 2°38.137 29.159465 0.066638 0.350827  
2002-11-26 10:38:21 51°35.735 2°38.216 29.560794 0.066638 0.350833  
2002-11-26 10:39:21 51°35.946 2°38.323 30.658898 0.066638 0.350833  
2002-11-26 10:40:21 51°36.152 2°38.455 29.551282 0.066638 0.350838  
2002-11-26 10:41:21 51°36.358 2°38.587 29.367335 0.066638 0.350849  
2002-11-26 10:42:20 51°36.561 2°38.717 27.970775 0.066638 0.350843  
2002-11-26 10:43:20 51°36.768 2°38.849 29.286877 0.066638 0.350843  
2002-11-26 10:44:20 51°36.974 2°38.981 29.681472 0.066638 0.350854  
2002-11-26 10:45:21 51°37.176 2°39.137 29.188217 0.066638 0.350843  
2002-11-26 10:46:20 51°37.313 2°39.405 28.537099 0.066638 0.350849  
2002-11-26 10:47:20 51°37.446 2°39.688 29.694759 0.066638 0.350854  
2002-11-26 10:48:20 51°37.577 2°39.969 29.3927 0.066638 0.350854  
2002-11-26 10:49:20 51°37.709 2°40.248 29.77135 0.066638 0.350838  
2002-11-26 10:50:20 51°37.84 2°40.526 30.14653 0.066638 0.350849  
2002-11-26 10:51:21 51°37.971 2°40.808 29.827178 0.066638 0.350833  
2002-11-26 10:52:20 51°38.055 2°41.118 27.61493 0.066638 0.350833  
2002-11-26 10:53:21 51°38.14 2°41.444 29.782675 0.066638 0.350843  
2002-11-26 10:54:21 51°38.257 2°41.723 29.246474 0.066534 0.350269  
2002-11-26 10:55:20 51°38.422 2°41.936 28.615307 0.066638 0.350827  
2002-11-26 10:56:20 51°38.592 2°42.149 27.6189 0.066534 0.350269  
2002-11-26 10:57:20 51°38.761 2°42.366 28.671208 0.066534 0.350274  
2002-11-26 10:58:20 51°38.93 2°42.587 28.949445 0.066534 0.350274  
2002-11-26 10:59:20 51°39.098 2°42.81 29.612131 0.066638 0.350827  
2002-11-26 11:00:20 51°39.267 2°43.028 28.297543 0.066638 0.350843  
2002-11-26 11:01:20 51°39.478 2°43.056 28.535012 0.066534 0.350263  
2002-11-26 11:02:20 51°39.687 2°42.939 28.774529 0.066534 0.350247  
2002-11-26 11:03:20 51°39.895 2°42.811 28.787546 0.066534 0.350258  
2002-11-26 11:04:20 51°40.097 2°42.65 29.368687 0.066534 0.350263  
2002-11-26 11:05:20 51°40.281 2°42.437 27.336936 0.066638 0.350817  
2002-11-26 11:06:20 51°40.446 2°42.178 27.542521 0.066638 0.350811  
2002-11-26 11:07:21 51°40.605 2°41.896 27.849601 0.066534 0.350247  
2002-11-26 11:08:20 51°40.76 2°41.625 28.908752 0.066534 0.350242  
2002-11-26 11:09:20 51°40.904 2°41.333 29.352282 0.066534 0.350242  
2002-11-26 11:10:20 51°41.025 2°41.011 28.733419 0.066638 0.350801  
2002-11-26 11:11:20 51°41.151 2°40.695 29.288623 0.066534 0.350242  
2002-11-26 11:12:20 51°41.278 2°40.379 28.628173 0.066534 0.350231  
2002-11-26 11:13:20 51°41.405 2°40.062 29.334948 0.066534 0.350231  
2002-11-26 11:14:20 51°41.531 2°39.75 29.026618 0.066534 0.350231  
2002-11-26 11:15:20 51°41.659 2°39.44 28.606789 0.066534 0.350226  
2002-11-26 11:16:20 51°41.786 2°39.129 28.681083 0.066534 0.350226  
2002-11-26 11:17:20 51°41.915 2°38.818 27.710262 0.066534 0.350226  
2002-11-26 11:18:20 51°42.043 2°38.506 28.918167 0.066534 0.350231  
2002-11-26 11:19:20 51°42.172 2°38.196 28.519828 0.066534 0.350221  
2002-11-26 11:20:21 51°42.302 2°37.879 29.618409 0.066534 0.350226  
2002-11-26 11:21:20 51°42.428 2°37.571 28.884512 0.066534 0.35021  
2002-11-26 11:22:20 51°42.557 2°37.259 28.676523 0.066534 0.350226  
2002-11-26 11:23:20 51°42.687 2°36.948 29.059101 0.066534 0.350221  
2002-11-26 11:24:20 51°42.711 2°36.598 28.230526 0.066534 0.350247  
2002-11-26 11:25:20 51°42.545 2°36.308 28.436512 0.066534 0.350221  
2002-11-26 11:26:20 51°42.359 2°36.043 27.974146 0.066534 0.350226  
2002-11-26 11:27:20 51°42.162 2°35.791 28.407542 0.066534 0.350204  
2002-11-26 11:28:20 51°41.97 2°35.529 29.424706 0.066534 0.35021  
2002-11-26 11:29:20 51°41.778 2°35.268 28.964614 0.066534 0.35021  
2002-11-26 11:30:20 51°41.583 2°35.01 29.037912 0.066534 0.350194  
2002-11-26 11:31:20 51°41.39 2°34.751 29.043344 0.066534 0.350194  
2002-11-26 11:32:20 51°41.195 2°34.491 29.558025 0.066534 0.350188  
2002-11-26 11:33:20 51°41.004 2°34.223 28.534221 0.066534 0.350183  
2002-11-26 11:34:20 51°40.813 2°33.957 28.184236 0.066534 0.350172  
2002-11-26 11:35:20 51°40.623 2°33.69 28.222361 0.066534 0.350178  
2002-11-26 11:36:20 51°40.433 2°33.423 28.616745 0.066534 0.350172  
2002-11-26 11:37:21 51°40.24 2°33.156 29.193032 0.066534 0.350167  
2002-11-26 11:38:20 51°40.054 2°32.898 29.544821 0.066534 0.350162  
2002-11-26 11:39:20 51°39.865 2°32.635 28.78102 0.066534 0.350162  
2002-11-26 11:40:20 51°39.677 2°32.371 29.13634 0.066534 0.350172  
2002-11-26 11:41:20 51°39.487 2°32.101 28.536091 0.066534 0.350156  
2002-11-26 11:42:20 51°39.299 2°31.831 30.601683 0.066534 0.350146  
2002-11-26 11:43:20 51°39.11 2°31.564 28.420624 0.066534 0.350146  
2002-11-26 11:44:20 51°38.922 2°31.297 27.771023 0.066534 0.35014  
2002-11-26 11:45:20 51°38.734 2°31.026 27.437226 0.066534 0.35014  
2002-11-26 11:46:20 51°38.546 2°30.756 27.870766 0.066534 0.350135  
2002-11-26 11:47:20 51°38.356 2°30.49 28.354582 0.066534 0.350124  
2002-11-26 11:48:20 51°38.166 2°30.226 27.652072 0.066534 0.350124  
2002-11-26 11:49:20 51°37.975 2°29.961 28.150865 0.066534 0.350119  
2002-11-26 11:50:20 51°37.779 2°29.706 28.829165 0.066534 0.350103  
2002-11-26 11:51:20 51°37.585 2°29.446 29.293538 0.066534 0.350103  
2002-11-26 11:52:20 51°37.393 2°29.187 27.746157 0.066534 0.350087  
2002-11-26 11:53:21 51°37.196 2°28.923 27.991543 0.066534 0.350092  
2002-11-26 11:54:20 51°37.004 2°28.667 29.346517 0.066534 0.350087  
2002-11-26 11:55:20 51°36.808 2°28.408 28.870867 0.066534 0.350081  
2002-11-26 11:56:20 51°36.612 2°28.149 29.353243 0.066534 0.350076  
2002-11-26 11:57:20 51°36.411 2°27.895 28.105829 0.066534 0.35006  
2002-11-26 11:58:21 51°36.205 2°27.64 29.722458 0.066534 0.350055  
2002-11-26 11:59:20 51°36.007 2°27.393 29.210933 0.066534 0.350049  
2002-11-26 12:00:20 51°35.807 2°27.139 30.245988 0.066534 0.350049  
2002-11-26 12:01:21 51°35.6 2°26.885 30.49014 0.066534 0.350044  
2002-11-26 12:02:20 51°35.398 2°26.644 29.543863 0.066534 0.350033  
2002-11-26 12:03:21 51°35.185 2°26.401 29.416208 0.066534 0.350028  
2002-11-26 12:04:20 51°34.973 2°26.184 28.540696 0.066534 0.350017  
2002-11-26 12:05:21 51°34.758 2°25.944 27.935096 0.066534 0.350022  
2002-11-26 12:06:20 51°34.55 2°25.715 29.2722 0.066534 0.350012  
2002-11-26 12:07:21 51°34.328 2°25.493 28.218568 0.066534 0.350006  
2002-11-26 12:08:20 51°34.115 2°25.278 28.346359 0.066534 0.34999  
2002-11-26 12:09:20 51°33.898 2°25.061 29.606847 0.066534 0.349985  
2002-11-26 12:10:20 51°33.677 2°24.843 28.157808 0.066534 0.349974  
2002-11-26 12:11:21 51°33.464 2°24.614 30.578295 0.066534 0.349974  
2002-11-26 12:12:20 51°33.259 2°24.385 28.794717 0.066534 0.349958  
2002-11-26 12:13:20 51°33.052 2°24.152 30.077297 0.066534 0.349948  
2002-11-26 12:14:20 51°32.846 2°23.921 29.979417 0.066534 0.349948  
2002-11-26 12:15:20 51°32.641 2°23.686 29.305575 0.066534 0.349926  
2002-11-26 12:16:20 51°32.44 2°23.44 29.189894 0.066534 0.349926  
2002-11-26 12:17:21 51°32.234 2°23.192 29.977969 0.066534 0.349905  
2002-11-26 12:18:21 51°32.034 2°22.95 29.176125 0.066534 0.349894  
2002-11-26 12:19:21 51°31.836 2°22.71 29.39078 0.066534 0.349889  
2002-11-26 12:20:20 51°31.641 2°22.476 29.669494 0.066534 0.349878  
2002-11-26 12:21:20 51°31.432 2°22.28 30.897058 0.066534 0.349889  
2002-11-26 12:22:20 51°31.22 2°22.397 29.457374 0.066534 0.349862  
2002-11-26 12:23:20 51°31.083 2°22.69 29.486404 0.066534 0.349851  
2002-11-26 12:24:20 51°30.947 2°22.989 29.598085 0.066534 0.349841  
2002-11-26 12:25:20 51°30.806 2°23.283 28.933521 0.066534 0.349819  
2002-11-26 12:26:20 51°30.66 2°23.572 29.031586 0.066534 0.349814  
2002-11-26 12:27:20 51°30.513 2°23.862 29.127203 0.066534 0.349777  
2002-11-26 12:28:20 51°30.369 2°24.155 30.818487 0.066534 0.349755  
2002-11-26 12:29:20 51°30.228 2°24.449 30.279182 0.066534 0.349729  
2002-11-26 12:30:20 51°30.086 2°24.742 29.572079 0.066534 0.349713  
2002-11-26 12:31:20 51°29.945 2°25.036 28.489522 0.066534 0.349697  
2002-11-26 12:32:20 51°29.806 2°25.337 28.804863 0.066534 0.349681  
2002-11-26 12:33:20 51°29.67 2°25.642 29.274979 0.066534 0.349643  
2002-11-26 12:34:20 51°29.532 2°25.946 29.441095 0.066534 0.349643  
2002-11-26 12:35:20 51°29.391 2°26.246 30.243245 0.066534 0.349638  
2002-11-26 12:36:21 51°29.25 2°26.553 30.016573 0.066534 0.349617  
2002-11-26 12:37:20 51°29.114 2°26.848 28.093453 0.066638 0.350163  
2002-11-26 12:38:20 51°28.997 2°27.09 30.391387 0.066534 0.349595  
2002-11-26 12:39:20 51°28.932 2°27.17 30.514747 0.066534 0.349585  
2002-11-26 12:40:22 51°28.916 2°27.17 28.079446 0.066638 0.350131  
2002-11-26 12:41:21 51°28.91 2°27.166 28.884369 0.066638 0.350115  
2002-11-26 12:42:20 51°28.902 2°27.163 28.924717 0.066638 0.350105  
2002-11-26 12:43:20 51°28.896 2°27.161 28.881898 0.066638 0.350099  
2002-11-26 12:44:20 51°28.888 2°27.161 28.063083 0.066638 0.350089  
2002-11-26 12:45:20 51°28.879 2°27.162 28.853601 0.066638 0.350073  
2002-11-26 12:46:21 51°28.838 2°27.241 29.148903 0.066638 0.350057  
2002-11-26 12:47:20 51°28.668 2°27.377 28.474077 0.066638 0.350046  
2002-11-26 12:48:20 51°28.433 2°27.343 31.658782 0.066638 0.350024  
2002-11-26 12:49:20 51°28.193 2°27.259 29.929917 0.066638 0.350014  
2002-11-26 12:50:20 51°27.956 2°27.163 29.421186 0.066638 0.350008  
2002-11-26 12:51:20 51°27.717 2°27.062 29.514606 0.066638 0.349998  
2002-11-26 12:52:20 51°27.478 2°26.952 28.588744 0.066638 0.349992  
2002-11-26 12:53:20 51°27.238 2°26.841 31.201088 0.066638 0.349987  
2002-11-26 12:54:20 51°26.998 2°26.728 30.381311 0.066638 0.349987  
2002-11-26 12:55:20 51°26.757 2°26.621 29.612131 0.066638 0.349982  
2002-11-26 12:56:20 51°26.519 2°26.507 30.530866 0.066638 0.349971  
2002-11-26 12:57:20 51°26.28 2°26.399 30.031035 0.066638 0.34996  
2002-11-26 12:58:20 51°26.041 2°26.289 29.104926 0.066638 0.349966  
2002-11-26 12:59:20 51°25.803 2°26.179 30.71226 0.066638 0.349966  
2002-11-26 13:00:22 51°25.557 2°26.067 32.481161 0.066638 0.34996  
2002-11-26 13:01:20 51°25.325 2°25.965 28.344231 0.066638 0.349944  
2002-11-26 13:02:21 51°25.08 2°25.864 28.319844 0.066638 0.349955  
2002-11-26 13:03:20 51°24.842 2°25.765 28.772054 0.066638 0.349944  
2002-11-26 13:04:20 51°24.599 2°25.663 29.017574 0.066638 0.34995  
2002-11-26 13:05:21 51°24.353 2°25.56 29.52739 0.066638 0.349939  
2002-11-26 13:06:20 51°24.115 2°25.461 29.500329 0.066638 0.349934  
2002-11-26 13:07:20 51°23.876 2°25.362 29.971334 0.066638 0.349939  
2002-11-26 13:08:20 51°23.638 2°25.264 29.464126 0.066638 0.349934  
2002-11-26 13:09:20 51°23.401 2°25.166 28.882686 0.066638 0.349934  
2002-11-26 13:10:20 51°23.17 2°25.195 29.738889 0.066638 0.349928  
2002-11-26 13:11:20 51°23.008 2°25.451 29.971298 0.066638 0.349928  
2002-11-26 13:12:20 51°22.894 2°25.775 29.452079 0.066638 0.349918  
2002-11-26 13:13:20 51°22.766 2°26.09 30.421535 0.066638 0.349923  
2002-11-26 13:14:21 51°22.636 2°26.41 29.271773 0.066638 0.349902  
2002-11-26 13:15:21 51°22.526 2°26.737 29.305468 0.066638 0.349896  
2002-11-26 13:16:21 51°22.434 2°27.075 27.870693 0.066638 0.34988  
2002-11-26 13:17:21 51°22.343 2°27.414 28.325292 0.066638 0.349875  
2002-11-26 13:18:20 51°22.259 2°27.752 28.940141 0.066638 0.34988  
2002-11-26 13:19:21 51°22.181 2°28.107 28.870867 0.066638 0.34987  
2002-11-26 13:20:22 51°22.127 2°28.469 29.116351 0.066638 0.349864  
2002-11-26 13:21:20 51°22.078 2°28.815 28.504497 0.066638 0.349864  
2002-11-26 13:22:21 51°22.026 2°29.178 28.985752 0.066638 0.349854  
2002-11-26 13:23:20 51°21.973 2°29.53 28.870079 0.066638 0.349848  
2002-11-26 13:24:20 51°21.921 2°29.889 28.918811 0.066638 0.349864  
2002-11-26 13:25:22 51°21.865 2°30.259 28.361182 0.066638 0.349864  
2002-11-26 13:26:20 51°21.813 2°30.607 29.408207 0.066638 0.349843  
2002-11-26 13:27:20 51°21.761 2°30.967 29.140338 0.066638 0.349848  
2002-11-26 13:28:20 51°21.708 2°31.328 29.268851 0.066638 0.349843  
2002-11-26 13:29:20 51°21.652 2°31.694 29.134627 0.066638 0.349843  
2002-11-26 13:30:20 51°21.596 2°32.058 27.936111 0.066638 0.349838  
2002-11-26 13:31:20 51°21.537 2°32.421 29.176839 0.066638 0.349822  
2002-11-26 13:32:20 51°21.475 2°32.785 30.576264 0.066638 0.349827  
2002-11-26 13:33:20 51°21.415 2°33.151 28.785 0.066638 0.349827  
2002-11-26 13:34:20 51°21.361 2°33.518 32.093028 0.066638 0.349822  
2002-11-26 13:35:21 51°21.305 2°33.893 29.935391 0.066638 0.349822  
2002-11-26 13:36:22 51°21.249 2°34.269 30.32863 0.066742 0.350373  
2002-11-26 13:37:20 51°21.199 2°34.623 29.953153 0.066638 0.349811  
2002-11-26 13:38:20 51°21.143 2°34.988 29.935638 0.066638 0.3498  
2002-11-26 13:39:20 51°21.091 2°35.351 29.967698 0.066638 0.3498  
2002-11-26 13:40:20 51°21.047 2°35.718 29.218456 0.066638 0.349795  
2002-11-26 13:41:20 51°20.999 2°36.089 30.929586 0.066742 0.350352  
2002-11-26 13:42:21 51°20.957 2°36.468 30.623419 0.066638 0.349795  
2002-11-26 13:43:20 51°20.919 2°36.837 29.000306 0.066638 0.349784  
2002-11-26 13:44:20 51°20.881 2°37.212 31.263825 0.066742 0.350347  
2002-11-26 13:45:20 51°20.842 2°37.587 31.129783 0.066742 0.350341  
2002-11-26 13:46:20 51°20.805 2°37.963 30.074829 0.066742 0.350336  
2002-11-26 13:47:20 51°20.766 2°38.337 29.612592 0.066742 0.350331  
2002-11-26 13:48:20 51°20.729 2°38.712 29.738004 0.066742 0.350331  
2002-11-26 13:49:20 51°20.691 2°39.09 30.089915 0.066742 0.350331  
2002-11-26 13:50:21 51°20.642 2°39.471 30.673588 0.066742 0.350325  
2002-11-26 13:51:20 51°20.576 2°39.832 30.129131 0.066742 0.35032  
2002-11-26 13:52:20 51°20.511 2°40.2 29.733755 0.066742 0.35032  
2002-11-26 13:53:20 51°20.447 2°40.571 29.3911 0.066742 0.35032  
2002-11-26 13:54:21 51°20.384 2°40.947 29.918191 0.066742 0.350315  
2002-11-26 13:55:20 51°20.322 2°41.312 29.638762 0.066742 0.350309  
2002-11-26 13:56:20 51°20.26 2°41.685 30.657429 0.066742 0.350299  
2002-11-26 13:57:20 51°20.199 2°42.059 29.5609 0.066742 0.350299  
2002-11-26 13:58:20 51°20.138 2°42.435 29.311237 0.066742 0.350293  
2002-11-26 13:59:21 51°20.076 2°42.815 29.547803 0.066742 0.350293  
2002-11-26 14:00:20 51°20.015 2°43.181 29.898336 0.066742 0.350288  
2002-11-26 14:01:20 51°19.953 2°43.553 29.782746 0.066742 0.350277  
2002-11-26 14:02:20 51°19.893 2°43.923 31.110834 0.066742 0.350267  
2002-11-26 14:03:20 51°19.833 2°44.294 29.212787 0.066742 0.350272  
2002-11-26 14:04:20 51°19.77 2°44.662 29.676582 0.066742 0.350272  
2002-11-26 14:05:20 51°19.689 2°45.026 30.586174 0.066742 0.350272  
2002-11-26 14:06:20 51°19.614 2°45.389 30.357153 0.066742 0.350256  
2002-11-26 14:07:21 51°19.538 2°45.761 29.090999 0.066742 0.350256  
2002-11-26 14:08:20 51°19.466 2°46.119 30.256609 0.066742 0.350251  
2002-11-26 14:09:20 51°19.395 2°46.479 30.235612 0.066742 0.350256  
2002-11-26 14:10:20 51°19.312 2°46.826 28.98965 0.066742 0.350256  
2002-11-26 14:11:21 51°19.223 2°47.179 29.894944 0.066742 0.350251  
2002-11-26 14:12:20 51°19.131 2°47.517 29.867697 0.066742 0.350251  
2002-11-26 14:13:21 51°19.026 2°47.862 30.548769 0.066742 0.350256  
2002-11-26 14:14:21 51°18.922 2°48.204 29.73248 0.066742 0.350251  
2002-11-26 14:15:21 51°18.816 2°48.544 30.200323 0.066742 0.35024  
2002-11-26 14:16:21 51°18.697 2°48.873 30.290713 0.066742 0.350245  
2002-11-26 14:17:21 51°18.579 2°49.205 28.399073 0.066742 0.350235  
2002-11-26 14:18:21 51°18.46 2°49.537 31.75667 0.066742 0.350235  
2002-11-26 14:19:20 51°18.343 2°49.863 30.585018 0.066742 0.350229  
2002-11-26 14:20:20 51°18.227 2°50.188 30.359962 0.066742 0.350224  
2002-11-26 14:21:20 51°18.109 2°50.512 29.321919 0.066742 0.350224  
2002-11-26 14:22:21 51°17.992 2°50.844 29.86296 0.066742 0.350229  
2002-11-26 14:23:21 51°17.875 2°51.172 30.195571 0.066742 0.350229  
2002-11-26 14:24:20 51°17.76 2°51.493 29.421186 0.066742 0.350219  
2002-11-26 14:25:20 51°17.63 2°51.804 30.407989 0.066742 0.350224  
2002-11-26 14:26:21 51°17.481 2°52.103 30.548069 0.066742 0.350224  
2002-11-26 14:27:20 51°17.322 2°52.365 29.487861 0.066742 0.350219  
2002-11-26 14:28:20 51°17.137 2°52.586 29.782533 0.066742 0.350224  
2002-11-26 14:29:20 51°16.941 2°52.791 28.777111 0.066742 0.350229  
2002-11-26 14:30:20 51°16.737 2°52.977 29.931542 0.066742 0.35024  
2002-11-26 14:31:20 51°16.526 2°53.135 29.987887 0.066742 0.350235  
2002-11-26 14:32:20 51°16.306 2°53.238 29.740659 0.066742 0.350256  
2002-11-26 14:33:21 51°16.083 2°53.332 28.753869 0.066742 0.350261  
2002-11-26 14:34:20 51°15.87 2°53.462 30.350445 0.066742 0.350261  
2002-11-26 14:35:20 51°15.652 2°53.578 29.922465 0.066742 0.350277  
2002-11-26 14:36:20 51°15.442 2°53.728 30.266807 0.066742 0.350283  
2002-11-26 14:37:20 51°15.249 2°53.929 30.937742 0.066742 0.350288  
2002-11-26 14:38:20 51°15.072 2°54.156 29.357905 0.066742 0.350283  
2002-11-26 14:39:21 51°14.901 2°54.33 29.307569 0.066742 0.350304  
2002-11-26 14:40:21 51°14.734 2°54.502 28.976311 0.066742 0.350299  
2002-11-26 14:41:20 51°14.591 2°54.719 29.947645 0.066742 0.350304  
2002-11-26 14:42:20 51°14.446 2°54.942 29.768059 0.066742 0.350304  
2002-11-26 14:43:20 51°14.315 2°55.188 30.203138 0.066742 0.350315  
2002-11-26 14:44:20 51°14.211 2°55.336 29.301943 0.066742 0.350325  
2002-11-26 14:45:21 51°14.124 2°55.417 29.770395 0.066742 0.350331